createdAt,value
2019-05-05T00:01:55.564Z,0.20
2019-05-05T00:04:45.927Z,0.28
2019-05-05T00:07:19.787Z,0.01
2019-05-05T00:09:50.036Z,-0.34
2019-05-05T00:12:38.024Z,-0.54
2019-05-05T00:15:27.883Z,-0.66
2019-05-05T00:17:58.046Z,-0.75
2019-05-05T00:20:28.140Z,-0.66
2019-05-05T00:22:59.496Z,-0.38
2019-05-05T00:25:29.611Z,-0.23
2019-05-05T00:27:59.667Z,-0.14
2019-05-05T00:30:29.780Z,-0.08
2019-05-05T00:32:59.862Z,-0.13
2019-05-05T00:35:29.945Z,-0.01
2019-05-05T00:38:00.043Z,-0.01
2019-05-05T00:40:30.167Z,-0.36
2019-05-05T00:43:00.400Z,-0.69
2019-05-05T00:45:31.184Z,-0.84
2019-05-05T00:48:16.131Z,-0.90
2019-05-05T00:50:46.202Z,-1.04
2019-05-05T00:53:16.282Z,-1.16
2019-05-05T00:55:46.392Z,-1.23
2019-05-05T00:58:16.461Z,-1.24
2019-05-05T01:01:08.553Z,-1.27
2019-05-05T01:03:38.685Z,-1.32
2019-05-05T01:06:18.773Z,-1.29
2019-05-05T01:08:48.862Z,-1.31
2019-05-05T01:11:19.108Z,-1.36
2019-05-05T01:13:49.224Z,-1.42
2019-05-05T01:16:19.288Z,-1.43
2019-05-05T01:18:49.366Z,-1.50
2019-05-05T01:21:19.468Z,-1.56
2019-05-05T01:23:49.553Z,-1.46
2019-05-05T01:26:19.620Z,-1.45
2019-05-05T01:28:49.692Z,-1.47
2019-05-05T01:31:20.575Z,-1.08
2019-05-05T01:34:00.243Z,-0.84
2019-05-05T01:36:30.340Z,-0.86
2019-05-05T01:39:34.758Z,-0.72
2019-05-05T01:42:11.110Z,-0.75
2019-05-05T01:44:41.257Z,-0.66
2019-05-05T01:47:11.523Z,-0.67
2019-05-05T01:49:41.577Z,-0.74
2019-05-05T01:52:11.686Z,-0.85
2019-05-05T01:54:41.755Z,-0.94
2019-05-05T01:57:11.990Z,-1.11
2019-05-05T01:59:42.176Z,-1.28
2019-05-05T02:02:14.421Z,-0.96
2019-05-05T02:04:44.884Z,-0.90
2019-05-05T02:07:15.452Z,-0.86
2019-05-05T02:09:45.501Z,-1.05
2019-05-05T02:12:15.998Z,-0.95
2019-05-05T02:14:46.201Z,-0.87
2019-05-05T02:17:16.265Z,-0.87
2019-05-05T02:19:46.355Z,-0.74
2019-05-05T02:22:16.431Z,-0.80
2019-05-05T02:24:46.652Z,-0.78
2019-05-05T02:27:19.586Z,-0.81
2019-05-05T02:29:55.280Z,-0.91
2019-05-05T02:32:56.526Z,-1.38
2019-05-05T02:35:26.593Z,-1.50
2019-05-05T02:37:56.687Z,-1.09
2019-05-05T02:40:27.778Z,-1.04
2019-05-05T02:42:58.248Z,-1.21
2019-05-05T02:45:44.113Z,-1.42
2019-05-05T02:48:15.785Z,-1.09
2019-05-05T02:51:00.096Z,-1.05
2019-05-05T02:53:33.986Z,-1.04
2019-05-05T02:56:08.259Z,-1.26
2019-05-05T02:58:39.158Z,-1.42
2019-05-05T03:01:34.215Z,-1.54
2019-05-05T03:04:04.981Z,-1.17
2019-05-05T03:06:37.617Z,-1.12
2019-05-05T03:09:07.688Z,-1.04
2019-05-05T03:11:39.287Z,-1.16
2019-05-05T03:14:14.219Z,-1.27
2019-05-05T03:16:44.689Z,-1.34
2019-05-05T03:19:14.751Z,-1.37
2019-05-05T03:21:45.144Z,-1.56
2019-05-05T03:24:15.688Z,-1.65
2019-05-05T03:26:45.799Z,-1.31
2019-05-05T03:29:19.478Z,-1.40
2019-05-05T03:31:50.588Z,-1.38
2019-05-05T03:34:23.965Z,-1.46
2019-05-05T03:36:54.443Z,-1.51
2019-05-05T03:39:29.179Z,-1.56
2019-05-05T03:42:18.826Z,-1.54
2019-05-05T03:45:14.591Z,-1.42
2019-05-05T03:47:44.780Z,-1.39
2019-05-05T03:50:16.693Z,-1.30
2019-05-05T03:52:46.893Z,-1.32
2019-05-05T03:55:17.257Z,-1.48
2019-05-05T03:57:47.511Z,-1.42
2019-05-05T04:00:25.858Z,-1.44
2019-05-05T04:03:00.603Z,-1.27
2019-05-05T04:05:37.788Z,-1.26
2019-05-05T04:08:08.110Z,-1.25
2019-05-05T04:10:38.385Z,-1.36
2019-05-05T04:13:08.753Z,-1.29
2019-05-05T04:15:41.146Z,-1.29
2019-05-05T04:18:16.436Z,-1.20
2019-05-05T04:20:46.603Z,-1.15
2019-05-05T04:23:16.682Z,-1.05
2019-05-05T04:25:46.743Z,-0.93
2019-05-05T04:28:16.848Z,-0.95
2019-05-05T04:30:46.977Z,-0.92
2019-05-05T04:33:17.053Z,-0.83
2019-05-05T04:35:47.142Z,-0.93
2019-05-05T04:38:17.261Z,-0.97
2019-05-05T04:40:49.657Z,-0.89
2019-05-05T04:43:19.803Z,-0.66
2019-05-05T04:45:49.882Z,-0.53
2019-05-05T04:48:35.765Z,-0.59
2019-05-05T04:51:11.438Z,-0.42
2019-05-05T04:54:06.595Z,-0.30
2019-05-05T04:56:36.663Z,-0.35
2019-05-05T04:59:09.634Z,-0.23
2019-05-05T05:01:39.711Z,-0.12
2019-05-05T05:04:37.865Z,-0.12
2019-05-05T05:07:07.949Z,-0.18
2019-05-05T05:09:38.019Z,-0.07
2019-05-05T05:12:08.090Z,0.03
2019-05-05T05:14:38.166Z,0.13
2019-05-05T05:17:14.083Z,0.24
2019-05-05T05:19:44.309Z,0.31
2019-05-05T05:22:14.393Z,0.40
2019-05-05T05:24:44.751Z,0.48
2019-05-05T05:27:14.940Z,0.66
2019-05-05T05:29:45.013Z,3.52
2019-05-05T05:32:15.602Z,4.57
2019-05-05T05:34:45.784Z,4.89
2019-05-05T05:37:15.878Z,7.40
2019-05-05T05:39:58.730Z,9.07
2019-05-05T05:42:28.828Z,9.97
2019-05-05T05:45:14.440Z,11.16
2019-05-05T05:48:01.617Z,11.70
2019-05-05T05:50:39.710Z,11.04
2019-05-05T05:53:09.779Z,11.23
2019-05-05T05:55:39.858Z,11.68
2019-05-05T05:58:09.942Z,12.01
2019-05-05T06:00:41.691Z,12.16
2019-05-05T06:03:13.908Z,12.34
2019-05-05T06:05:43.831Z,12.62
2019-05-05T06:08:14.256Z,12.12
2019-05-05T06:10:44.507Z,12.45
2019-05-05T06:13:15.663Z,12.54
2019-05-05T06:15:45.901Z,12.97
2019-05-05T06:18:15.963Z,12.87
2019-05-05T06:20:46.090Z,13.55
2019-05-05T06:23:16.180Z,12.98
2019-05-05T06:25:46.269Z,12.45
2019-05-05T06:28:16.328Z,12.31
2019-05-05T06:30:46.455Z,12.31
2019-05-05T06:33:16.604Z,12.15
2019-05-05T06:35:46.713Z,12.46
2019-05-05T06:38:16.788Z,12.68
2019-05-05T06:41:04.232Z,12.18
2019-05-05T06:43:51.605Z,12.63
2019-05-05T06:46:25.228Z,13.32
2019-05-05T06:48:55.322Z,12.24
2019-05-05T06:51:25.539Z,12.74
2019-05-05T06:53:55.636Z,12.34
2019-05-05T06:56:25.719Z,11.88
2019-05-05T06:58:55.848Z,11.97
2019-05-05T07:01:25.963Z,11.76
2019-05-05T07:03:56.051Z,11.68
2019-05-05T07:06:26.149Z,12.03
2019-05-05T07:08:56.253Z,11.72
2019-05-05T07:11:26.437Z,12.39
2019-05-05T07:13:56.545Z,12.13
2019-05-05T07:16:26.641Z,11.22
2019-05-05T07:18:56.803Z,11.59
2019-05-05T07:21:26.897Z,12.63
2019-05-05T07:23:56.999Z,12.85
2019-05-05T07:26:27.115Z,13.20
2019-05-05T07:28:57.191Z,12.66
2019-05-05T07:31:27.584Z,12.84
2019-05-05T07:33:57.645Z,13.24
2019-05-05T07:36:47.670Z,11.71
2019-05-05T07:39:17.738Z,9.98
2019-05-05T07:41:47.870Z,10.14
2019-05-05T07:44:26.613Z,11.18
2019-05-05T07:46:49.737Z,12.05
2019-05-05T07:49:19.832Z,12.08
2019-05-05T07:51:49.985Z,12.47
2019-05-05T07:54:20.037Z,12.63
2019-05-05T07:56:50.164Z,12.78
2019-05-05T07:59:20.256Z,12.46
2019-05-05T08:01:50.341Z,12.81
2019-05-05T08:04:20.448Z,12.89
2019-05-05T08:06:50.542Z,12.87
2019-05-05T08:09:22.600Z,12.62
2019-05-05T08:11:56.740Z,13.01
2019-05-05T08:14:26.831Z,13.03
2019-05-05T08:17:18.984Z,13.63
2019-05-05T08:20:03.989Z,13.39
2019-05-05T08:22:34.102Z,13.80
2019-05-05T08:25:14.510Z,14.29
2019-05-05T08:28:04.325Z,13.76
2019-05-05T08:31:09.090Z,13.78
2019-05-05T08:33:39.237Z,13.12
2019-05-05T08:36:09.403Z,11.72
2019-05-05T08:38:39.612Z,11.57
2019-05-05T08:41:09.747Z,13.23
2019-05-05T08:43:40.014Z,14.59
2019-05-05T08:46:10.226Z,15.09
2019-05-05T08:48:40.465Z,13.85
2019-05-05T08:51:14.132Z,12.47
2019-05-05T08:53:47.866Z,12.35
2019-05-05T08:56:16.321Z,11.74
2019-05-05T08:58:49.659Z,11.36
2019-05-05T09:01:18.308Z,13.26
2019-05-05T09:03:48.912Z,14.17
2019-05-05T09:06:19.013Z,14.65
2019-05-05T09:08:49.144Z,13.85
2019-05-05T09:11:19.251Z,14.80
2019-05-05T09:13:49.344Z,13.34
2019-05-05T09:16:19.477Z,12.17
2019-05-05T09:19:04.161Z,11.83
2019-05-05T09:21:34.651Z,11.41
2019-05-05T09:24:27.417Z,11.43
2019-05-05T09:27:19.464Z,11.37
2019-05-05T09:29:58.445Z,11.87
2019-05-05T09:32:28.861Z,13.98
2019-05-05T09:34:59.000Z,12.89
2019-05-05T09:37:36.090Z,11.97
2019-05-05T09:40:07.256Z,11.53
2019-05-05T09:42:37.363Z,11.44
2019-05-05T09:45:08.211Z,11.58
2019-05-05T09:47:38.312Z,11.75
2019-05-05T09:50:37.739Z,11.72
2019-05-05T09:53:07.828Z,12.66
2019-05-05T09:55:37.929Z,14.09
2019-05-05T09:58:16.024Z,15.71
2019-05-05T10:00:46.927Z,15.50
2019-05-05T10:03:17.030Z,15.96
2019-05-05T10:05:47.401Z,16.02
2019-05-05T10:08:17.578Z,13.74
2019-05-05T10:10:50.831Z,13.43
2019-05-05T10:13:20.943Z,12.21
2019-05-05T10:15:51.056Z,11.85
2019-05-05T10:18:21.193Z,11.60
2019-05-05T10:20:51.281Z,12.19
2019-05-05T10:23:23.600Z,13.22
2019-05-05T10:25:56.961Z,13.11
2019-05-05T10:28:27.164Z,13.58
2019-05-05T10:30:57.326Z,13.28
2019-05-05T10:33:27.448Z,12.23
2019-05-05T10:35:57.567Z,11.90
2019-05-05T10:38:27.712Z,11.65
2019-05-05T10:40:57.805Z,12.11
2019-05-05T10:43:27.924Z,12.69
2019-05-05T10:45:58.025Z,12.70
2019-05-05T10:48:28.148Z,13.10
2019-05-05T10:50:58.245Z,13.80
2019-05-05T10:53:28.349Z,15.04
2019-05-05T10:56:01.044Z,15.75
2019-05-05T10:58:31.163Z,15.06
2019-05-05T11:01:04.229Z,15.44
2019-05-05T11:03:34.667Z,15.66
2019-05-05T11:06:04.774Z,15.82
2019-05-05T11:08:35.138Z,15.31
2019-05-05T11:11:05.176Z,15.40
2019-05-05T11:13:35.365Z,14.44
2019-05-05T11:16:05.623Z,13.80
2019-05-05T11:18:35.759Z,13.12
2019-05-05T11:21:06.164Z,12.94
2019-05-05T11:23:36.302Z,12.78
2019-05-05T11:26:06.429Z,12.42
2019-05-05T11:28:36.556Z,12.47
2019-05-05T11:31:06.609Z,12.21
2019-05-05T11:33:48.783Z,12.35
2019-05-05T11:36:23.962Z,12.23
2019-05-05T11:38:55.567Z,12.35
2019-05-05T11:41:25.719Z,12.47
2019-05-05T11:43:56.128Z,12.50
2019-05-05T11:46:26.234Z,12.84
2019-05-05T11:48:56.351Z,13.15
2019-05-05T11:51:26.619Z,14.41
2019-05-05T11:53:56.719Z,14.70
2019-05-05T11:56:26.861Z,14.23
2019-05-05T11:58:57.160Z,13.69
2019-05-05T12:01:27.579Z,13.64
2019-05-05T12:03:57.687Z,13.82
2019-05-05T12:06:27.792Z,14.22
2019-05-05T12:08:58.827Z,13.50
2019-05-05T12:11:28.917Z,13.34
2019-05-05T12:13:59.717Z,13.19
2019-05-05T12:16:31.174Z,13.48
2019-05-05T12:19:03.925Z,13.29
2019-05-05T12:21:34.068Z,13.44
2019-05-05T12:24:09.447Z,13.43
2019-05-05T12:27:03.569Z,13.37
2019-05-05T12:29:37.551Z,13.53
2019-05-05T12:32:07.720Z,13.56
2019-05-05T12:34:37.793Z,13.89
2019-05-05T12:37:07.992Z,14.21
2019-05-05T12:39:39.391Z,14.22
2019-05-05T12:42:09.509Z,15.39
2019-05-05T12:44:44.693Z,15.46
2019-05-05T12:47:34.112Z,15.93
2019-05-05T12:50:03.869Z,16.69
2019-05-05T12:52:33.980Z,16.24
2019-05-05T12:55:05.161Z,16.78
2019-05-05T12:57:38.295Z,17.25
2019-05-05T13:00:08.915Z,16.87
2019-05-05T13:02:39.545Z,16.80
2019-05-05T13:05:09.681Z,15.80
2019-05-05T13:07:46.768Z,15.45
2019-05-05T13:10:57.383Z,15.34
2019-05-05T13:13:28.955Z,14.88
2019-05-05T13:16:23.093Z,14.63
2019-05-05T13:19:47.293Z,14.85
2019-05-05T13:22:46.628Z,15.31
2019-05-05T13:28:56.139Z,13.99
2019-05-05T13:31:26.262Z,13.82
2019-05-05T13:33:58.082Z,13.67
2019-05-05T13:36:28.249Z,13.78
2019-05-05T13:39:05.537Z,13.74
2019-05-05T13:41:35.851Z,13.75
2019-05-05T13:44:09.932Z,13.28
2019-05-05T13:46:40.318Z,13.75
2019-05-05T13:49:21.222Z,13.45
2019-05-05T13:51:51.332Z,13.29
2019-05-05T13:54:24.248Z,13.27
2019-05-05T13:56:54.314Z,14.71
2019-05-05T13:59:25.610Z,15.17
2019-05-05T14:01:55.970Z,14.78
2019-05-05T14:04:29.352Z,13.81
2019-05-05T14:06:59.499Z,14.20
2019-05-05T14:09:29.665Z,14.16
2019-05-05T14:11:59.862Z,13.63
2019-05-05T14:14:30.078Z,13.10
2019-05-05T14:17:00.184Z,15.19
2019-05-05T14:19:30.337Z,14.21
2019-05-05T14:22:04.403Z,15.05
2019-05-05T14:24:44.386Z,16.21
2019-05-05T14:27:14.605Z,15.69
2019-05-05T14:30:06.631Z,15.78
2019-05-05T14:39:04.224Z,15.99
2019-05-05T14:41:56.100Z,16.06
2019-05-05T14:44:27.742Z,15.16
2019-05-05T14:47:09.550Z,16.61
2019-05-05T14:49:39.657Z,16.84
2019-05-05T14:52:10.956Z,16.92
2019-05-05T14:55:40.320Z,15.12
2019-05-05T14:58:17.784Z,15.51
2019-05-05T15:00:50.536Z,13.94
2019-05-05T15:03:48.439Z,13.18
2019-05-05T15:06:30.283Z,12.74
2019-05-05T15:09:18.012Z,12.05
2019-05-05T15:12:08.777Z,11.71
2019-05-05T15:14:38.915Z,11.42
2019-05-05T15:17:14.109Z,11.56
2019-05-05T15:19:43.979Z,13.53
2019-05-05T15:22:23.883Z,14.92
2019-05-05T15:24:54.437Z,15.90
2019-05-05T15:27:27.132Z,14.39
2019-05-05T15:29:57.706Z,14.90
2019-05-05T15:32:31.540Z,15.61
2019-05-05T15:35:03.985Z,13.25
2019-05-05T15:37:33.629Z,11.71
2019-05-05T15:40:04.229Z,10.87
2019-05-05T15:42:35.241Z,10.88
2019-05-05T15:45:05.941Z,10.36
2019-05-05T15:47:36.093Z,10.46
2019-05-05T15:50:06.567Z,12.68
2019-05-05T15:52:36.704Z,13.53
2019-05-05T15:55:07.130Z,12.56
2019-05-05T15:57:37.314Z,13.23
2019-05-05T16:00:08.202Z,11.48
2019-05-05T16:02:38.437Z,10.78
2019-05-05T16:05:10.719Z,10.45
2019-05-05T16:07:40.854Z,10.54
2019-05-05T16:10:13.617Z,10.25
2019-05-05T16:12:45.023Z,10.11
2019-05-05T16:15:42.183Z,9.84
2019-05-05T16:18:20.980Z,9.65
2019-05-05T16:20:57.373Z,9.58
2019-05-05T16:23:31.464Z,9.72
2019-05-05T16:26:03.669Z,9.91
2019-05-05T16:28:34.335Z,9.74
2019-05-05T16:31:05.494Z,9.60
2019-05-05T16:33:35.762Z,9.40
2019-05-05T16:36:06.437Z,9.53
2019-05-05T16:38:37.752Z,9.48
2019-05-05T16:41:07.953Z,9.78
2019-05-05T16:43:38.308Z,9.68
2019-05-05T16:46:08.475Z,9.66
2019-05-05T16:48:38.868Z,10.17
2019-05-05T16:51:10.745Z,10.22
2019-05-05T16:53:41.307Z,10.12
2019-05-05T16:56:14.126Z,9.91
2019-05-05T16:58:45.053Z,9.78
2019-05-05T17:01:22.805Z,9.71
2019-05-05T17:03:54.228Z,9.83
2019-05-05T17:06:24.717Z,9.52
2019-05-05T17:08:54.902Z,9.38
2019-05-05T17:11:26.412Z,9.61
2019-05-05T17:14:23.399Z,9.74
2019-05-05T17:17:16.543Z,10.15
2019-05-05T17:19:50.401Z,10.33
2019-05-05T17:22:38.063Z,10.28
2019-05-05T17:25:10.143Z,10.13
2019-05-05T17:27:50.812Z,9.70
2019-05-05T17:30:19.224Z,9.74
2019-05-05T17:32:49.656Z,9.60
2019-05-05T17:35:20.166Z,9.27
2019-05-05T17:37:50.443Z,9.04
2019-05-05T17:40:33.678Z,9.07
2019-05-05T17:43:24.650Z,9.09
2019-05-05T17:46:13.634Z,8.98
2019-05-05T17:49:08.605Z,8.84
2019-05-05T17:51:45.478Z,8.60
2019-05-05T17:54:28.299Z,8.42
2019-05-05T17:56:59.155Z,8.19
2019-05-05T17:59:29.540Z,8.11
2019-05-05T18:01:59.739Z,8.04
2019-05-05T18:04:29.976Z,7.81
2019-05-05T18:07:08.468Z,7.67
2019-05-05T18:09:56.384Z,7.60
2019-05-05T18:12:50.534Z,7.52
2019-05-05T18:15:41.143Z,7.50
2019-05-05T18:18:11.416Z,7.45
2019-05-05T18:20:41.750Z,7.35
2019-05-05T18:23:13.744Z,7.30
2019-05-05T18:25:44.295Z,7.27
2019-05-05T18:28:19.681Z,7.25
2019-05-05T18:30:46.710Z,7.13
2019-05-05T18:33:17.079Z,6.98
2019-05-05T18:35:47.394Z,6.87
2019-05-05T18:38:17.728Z,6.83
2019-05-05T18:40:48.922Z,6.75
2019-05-05T18:43:28.935Z,6.77
2019-05-05T18:46:04.627Z,6.70
2019-05-05T18:48:35.302Z,6.67
2019-05-05T18:51:07.648Z,6.58
2019-05-05T18:53:37.861Z,6.51
2019-05-05T18:56:08.879Z,6.43
2019-05-05T18:58:39.216Z,6.40
2019-05-05T19:01:31.270Z,6.32
2019-05-05T19:04:29.343Z,6.37
2019-05-05T19:07:07.648Z,6.42
2019-05-05T19:09:51.193Z,6.42
2019-05-05T19:12:14.415Z,6.39
2019-05-05T19:14:47.520Z,6.28
2019-05-05T19:17:17.888Z,6.18
2019-05-05T19:19:54.681Z,6.12
2019-05-05T19:22:24.439Z,6.02
2019-05-05T19:24:54.934Z,5.90
2019-05-05T19:27:25.297Z,5.81
2019-05-05T19:29:56.099Z,5.83
2019-05-05T19:32:26.900Z,5.74
2019-05-05T19:34:57.197Z,5.67
2019-05-05T19:37:27.644Z,5.63
2019-05-05T19:39:57.963Z,5.60
2019-05-05T19:42:28.602Z,5.50
2019-05-05T19:44:58.970Z,5.52
2019-05-05T19:47:29.221Z,5.59
2019-05-05T19:50:24.247Z,5.63
2019-05-05T19:52:54.117Z,5.72
2019-05-05T19:55:24.459Z,5.77
2019-05-05T19:57:54.805Z,5.84
2019-05-05T20:00:26.244Z,5.83
2019-05-05T20:03:04.451Z,5.81
2019-05-05T20:05:30.324Z,5.73
2019-05-05T20:08:00.743Z,5.69
2019-05-05T20:10:31.199Z,5.56
2019-05-05T20:13:01.518Z,5.42
2019-05-05T20:15:38.001Z,5.32
2019-05-05T20:18:08.295Z,5.29
2019-05-05T20:20:38.670Z,5.26
2019-05-05T20:23:08.926Z,5.15
2019-05-05T20:25:39.407Z,5.11
2019-05-05T20:28:09.578Z,5.06
2019-05-05T20:30:39.726Z,5.04
2019-05-05T20:33:16.635Z,5.02
2019-05-05T20:35:50.082Z,4.94
2019-05-05T20:38:25.995Z,4.80
2019-05-05T20:41:18.880Z,4.80
2019-05-05T20:43:49.007Z,4.63
2019-05-05T20:46:19.206Z,4.53
2019-05-05T20:48:49.423Z,4.55
2019-05-05T20:51:19.594Z,4.44
2019-05-05T20:53:54.259Z,4.45
2019-05-05T20:56:24.667Z,4.51
2019-05-05T20:58:55.014Z,4.48
2019-05-05T21:01:25.143Z,4.39
2019-05-05T21:04:00.300Z,4.35
2019-05-05T21:06:30.397Z,4.34
2019-05-05T21:09:00.500Z,4.26
2019-05-05T21:11:30.585Z,4.29
2019-05-05T21:14:00.717Z,4.29
2019-05-05T21:16:30.799Z,4.24
2019-05-05T21:19:00.874Z,4.16
2019-05-05T21:21:34.355Z,4.09
2019-05-05T21:24:04.652Z,4.05
2019-05-05T21:27:13.762Z,3.91
2019-05-05T21:29:43.702Z,3.91
2019-05-05T21:32:13.946Z,3.76
2019-05-05T21:34:44.545Z,3.81
2019-05-05T21:37:14.791Z,3.68
2019-05-05T21:39:45.491Z,3.63
2019-05-05T21:42:15.727Z,3.59
2019-05-05T21:44:45.802Z,3.57
2019-05-05T21:47:15.890Z,3.72
2019-05-05T21:49:45.978Z,3.60
2019-05-05T21:52:38.049Z,3.56
2019-05-05T21:55:26.094Z,3.43
2019-05-05T21:58:04.244Z,3.39
2019-05-05T22:00:51.821Z,3.45
2019-05-05T22:03:28.944Z,3.40
2019-05-05T22:05:59.157Z,3.33
2019-05-05T22:08:29.255Z,3.35
2019-05-05T22:10:59.660Z,3.45
2019-05-05T22:13:29.823Z,3.35
2019-05-05T22:15:59.923Z,3.29
2019-05-05T22:18:29.997Z,3.35
2019-05-05T22:21:19.169Z,3.34
2019-05-05T22:24:06.923Z,3.31
2019-05-05T22:26:37.026Z,3.27
2019-05-05T22:29:07.075Z,3.27
2019-05-05T22:31:37.165Z,3.10
2019-05-05T22:34:07.430Z,3.03
2019-05-05T22:36:37.558Z,3.13
2019-05-05T22:39:09.191Z,3.05
2019-05-05T22:41:39.278Z,3.02
2019-05-05T22:44:09.343Z,2.93
2019-05-05T22:46:39.532Z,2.94
2019-05-05T22:49:09.802Z,2.85
2019-05-05T22:51:39.882Z,2.83
2019-05-05T22:54:10.115Z,2.88
2019-05-05T22:56:40.195Z,2.88
2019-05-05T22:59:10.262Z,2.82
2019-05-05T23:01:40.382Z,2.83
2019-05-05T23:04:44.634Z,2.81
2019-05-05T23:07:20.497Z,2.78
2019-05-05T23:09:50.589Z,2.71
2019-05-05T23:12:20.710Z,2.70
2019-05-05T23:14:54.518Z,2.65
2019-05-05T23:17:55.884Z,2.68
2019-05-05T23:21:02.849Z,2.66
2019-05-05T23:23:51.165Z,2.59
2019-05-05T23:26:22.061Z,2.53
2019-05-05T23:28:53.695Z,2.55
2019-05-05T23:31:24.181Z,2.57
2019-05-05T23:33:54.880Z,2.51
2019-05-05T23:36:25.094Z,2.59
2019-05-05T23:38:55.170Z,2.74
2019-05-05T23:41:25.266Z,2.88
2019-05-05T23:43:55.356Z,2.96
2019-05-05T23:46:25.451Z,3.12
2019-05-05T23:48:55.540Z,3.18
2019-05-05T23:51:25.633Z,3.16
2019-05-05T23:53:55.726Z,3.25
2019-05-05T23:56:25.831Z,3.29
2019-05-05T23:58:56.050Z,3.35
